Time;durP1;ratioP1;P1;durP2;ratioP2;P2;SDS_P1;SDS_P2;PMS_P1;PMS_P2;Temp;Humidity;BMP_temperature;BMP_pressure;BME280_temperature;BME280_humidity;BME280_pressure;Samples;Min_cycle;Max_cycle;Signal;HPM_P1;HPM_P2
2023/10/31 00:00:39;;;;;;;7.03;5.50;;;11.10;99.90;;;;;;5135261;27;20609;-83
2023/10/31 00:03:05;;;;;;;6.30;5.60;;;11.10;99.90;;;;;;5135279;27;20248;-84
2023/10/31 00:05:33;;;;;;;6.27;5.03;;;11.10;99.90;;;;;;5135271;27;20649;-83
2023/10/31 00:08:00;;;;;;;5.33;4.83;;;11.10;99.90;;;;;;5135151;27;20202;-83
2023/10/31 00:10:27;;;;;;;5.63;4.70;;;11.10;99.90;;;;;;5135296;27;20194;-83
2023/10/31 00:12:54;;;;;;;5.20;4.70;;;11.10;99.90;;;;;;5135046;27;20801;-83
2023/10/31 00:15:20;;;;;;;4.83;4.33;;;11.00;99.90;;;;;;5134857;27;20500;-82
2023/10/31 00:17:47;;;;;;;4.43;4.03;;;11.00;99.90;;;;;;5134969;27;20670;-81
2023/10/31 00:20:14;;;;;;;4.53;4.10;;;11.00;99.90;;;;;;5134503;27;20781;-81
2023/10/31 00:22:42;;;;;;;4.40;4.00;;;11.00;99.90;;;;;;5134264;27;20223;-81
2023/10/31 00:25:09;;;;;;;4.13;3.73;;;11.00;99.90;;;;;;5134313;27;20653;-83
2023/10/31 00:27:35;;;;;;;4.43;3.73;;;11.00;99.90;;;;;;5134408;27;20195;-81
2023/10/31 00:30:02;;;;;;;4.27;3.60;;;11.00;99.90;;;;;;5134271;27;20202;-82
2023/10/31 00:32:29;;;;;;;3.80;3.50;;;11.00;99.90;;;;;;5134242;27;20199;-82
2023/10/31 00:34:56;;;;;;;3.80;3.40;;;11.00;99.90;;;;;;5134200;27;20234;-81
2023/10/31 00:37:22;;;;;;;3.00;2.70;;;11.00;99.90;;;;;;5133942;27;20256;-81
2023/10/31 00:39:50;;;;;;;3.37;3.07;;;11.00;99.90;;;;;;5134131;27;20550;-81
2023/10/31 00:42:17;;;;;;;3.47;2.97;;;11.00;99.90;;;;;;5134150;27;20895;-82
2023/10/31 00:44:44;;;;;;;3.20;2.90;;;11.00;99.90;;;;;;5134095;27;20191;-82
2023/10/31 00:47:10;;;;;;;3.20;2.90;;;10.90;99.90;;;;;;5133895;27;20202;-81
2023/10/31 00:49:37;;;;;;;2.87;2.57;;;11.00;99.90;;;;;;5133891;27;20425;-81
2023/10/31 00:52:04;;;;;;;2.60;2.40;;;11.00;99.90;;;;;;5134084;27;20195;-81
2023/10/31 00:54:31;;;;;;;2.80;2.60;;;10.90;99.90;;;;;;5133905;27;20195;-80
2023/10/31 00:56:59;;;;;;;3.27;2.80;;;11.00;99.90;;;;;;5133898;27;20194;-80
2023/10/31 00:59:26;;;;;;;2.40;2.20;;;11.00;99.90;;;;;;5134052;27;20252;-80
2023/10/31 01:01:52;;;;;;;2.83;2.63;;;11.00;99.90;;;;;;5133931;27;20219;-80
2023/10/31 01:04:19;;;;;;;4.03;2.57;;;10.90;99.90;;;;;;5133894;27;20251;-80
2023/10/31 01:06:45;;;;;;;4.63;3.10;;;10.90;99.90;;;;;;5133434;28;20734;-80
2023/10/31 01:09:13;;;;;;;2.83;2.60;;;10.90;99.90;;;;;;5133760;28;20203;-78
2023/10/31 01:11:39;;;;;;;3.07;2.50;;;10.90;99.90;;;;;;5133771;27;20244;-78
2023/10/31 01:14:07;;;;;;;2.50;2.30;;;11.00;99.90;;;;;;5133664;28;20199;-79
2023/10/31 01:16:34;;;;;;;2.37;2.17;;;11.00;99.90;;;;;;5133605;27;20195;-79
2023/10/31 01:19:01;;;;;;;2.53;2.33;;;11.00;99.90;;;;;;5133705;28;20530;-79
2023/10/31 01:21:27;;;;;;;2.50;2.30;;;11.00;99.90;;;;;;5133721;27;20231;-80
2023/10/31 01:23:54;;;;;;;2.73;2.30;;;11.00;99.90;;;;;;5133576;27;20256;-80
2023/10/31 01:26:21;;;;;;;2.03;1.83;;;10.90;99.90;;;;;;5133744;28;20220;-81
2023/10/31 01:28:47;;;;;;;2.10;1.90;;;10.90;99.90;;;;;;5133545;28;20199;-81
2023/10/31 01:31:15;;;;;;;1.87;1.77;;;11.00;99.90;;;;;;5133602;27;20252;-80
2023/10/31 01:33:42;;;;;;;2.33;1.90;;;10.90;99.90;;;;;;5133697;27;20202;-80
2023/10/31 01:36:10;;;;;;;1.77;1.67;;;10.90;99.90;;;;;;5135791;27;20199;-81
2023/10/31 01:38:37;;;;;;;1.70;1.60;;;10.90;99.90;;;;;;5137640;27;20642;-81
2023/10/31 01:41:04;;;;;;;2.20;2.00;;;10.80;99.90;;;;;;5137409;27;20194;-80
2023/10/31 01:43:31;;;;;;;1.60;1.50;;;10.80;99.90;;;;;;5137412;27;20199;-79
2023/10/31 01:45:58;;;;;;;2.20;2.00;;;10.80;99.90;;;;;;5137578;27;20702;-79
2023/10/31 01:48:28;;;;;;;1.30;1.20;;;10.70;99.90;;;;;;5137390;27;20708;-79
2023/10/31 01:50:55;;;;;;;1.93;1.70;;;10.50;99.90;;;;;;5137580;27;20202;-79
2023/10/31 01:53:23;;;;;;;1.70;1.40;;;10.40;99.90;;;;;;5137405;27;20199;-80
2023/10/31 01:55:51;;;;;;;1.77;1.33;;;10.30;99.90;;;;;;5137160;27;20206;-79
2023/10/31 01:58:17;;;;;;;1.40;1.30;;;10.20;99.90;;;;;;5137251;27;20202;-83
2023/10/31 02:00:44;;;;;;;1.83;1.40;;;10.10;99.90;;;;;;5137467;27;20294;-83
2023/10/31 02:03:11;;;;;;;1.40;1.30;;;10.10;99.90;;;;;;5137525;27;20292;-83
2023/10/31 02:05:39;;;;;;;1.70;1.50;;;10.10;99.90;;;;;;5137205;27;20199;-84
2023/10/31 02:08:08;;;;;;;1.70;1.60;;;10.00;99.90;;;;;;5137531;27;20195;-84
2023/10/31 02:10:34;;;;;;;2.30;1.37;;;10.00;99.90;;;;;;5137338;27;20191;-84
2023/10/31 02:13:12;;;;;;;1.40;1.30;;;10.00;99.90;;;;;;5137234;27;20247;-83
2023/10/31 02:15:38;;;;;;;2.10;1.60;;;9.90;99.90;;;;;;5137070;27;20248;-83
2023/10/31 02:18:05;;;;;;;1.83;1.73;;;9.90;99.90;;;;;;5137014;27;20195;-83
2023/10/31 02:20:32;;;;;;;1.80;1.70;;;9.90;99.90;;;;;;5136990;27;20195;-82
2023/10/31 02:23:00;;;;;;;2.40;1.53;;;9.90;99.90;;;;;;5136704;27;20223;-82
2023/10/31 02:25:27;;;;;;;1.50;1.40;;;9.90;99.90;;;;;;5136668;27;20199;-82
2023/10/31 02:27:53;;;;;;;2.40;1.50;;;9.90;99.90;;;;;;5136937;27;20218;-82
2023/10/31 02:30:20;;;;;;;3.20;1.77;;;9.90;99.90;;;;;;5136638;27;20199;-82
2023/10/31 02:32:47;;;;;;;3.03;2.10;;;9.90;99.90;;;;;;5136472;27;20198;-80
2023/10/31 02:35:15;;;;;;;2.90;1.90;;;9.90;99.90;;;;;;5136602;27;20222;-79
2023/10/31 02:37:41;;;;;;;2.10;1.83;;;9.90;99.90;;;;;;5136326;27;20651;-79
2023/10/31 02:40:11;;;;;;;2.10;1.90;;;9.80;99.90;;;;;;5136483;27;20256;-78
2023/10/31 02:42:37;;;;;;;3.77;2.33;;;9.90;99.90;;;;;;5136367;27;20233;-77
2023/10/31 02:45:05;;;;;;;2.30;2.10;;;9.90;99.90;;;;;;5136347;27;20259;-77
2023/10/31 02:47:31;;;;;;;2.67;2.47;;;9.90;99.90;;;;;;5134866;27;20714;-76
2023/10/31 02:49:58;;;;;;;2.97;2.60;;;9.90;99.90;;;;;;5136020;27;20670;-76
2023/10/31 02:52:25;;;;;;;2.97;2.77;;;9.90;99.90;;;;;;5136162;27;20228;-76
2023/10/31 02:54:51;;;;;;;3.10;2.60;;;9.80;99.90;;;;;;5136130;27;20199;-75
2023/10/31 02:57:19;;;;;;;3.73;2.80;;;9.80;99.90;;;;;;5136134;27;20565;-76
2023/10/31 02:59:46;;;;;;;2.87;2.57;;;9.80;99.90;;;;;;5135855;27;20203;-75
2023/10/31 03:02:13;;;;;;;2.90;2.70;;;9.70;99.90;;;;;;5135988;27;20644;-75
2023/10/31 03:04:40;;;;;;;3.30;3.00;;;9.70;99.90;;;;;;5135893;27;20888;-75
2023/10/31 03:07:06;;;;;;;2.70;2.50;;;9.70;99.90;;;;;;5135595;27;20649;-76
2023/10/31 03:09:33;;;;;;;3.30;2.57;;;9.70;99.90;;;;;;5136071;27;20195;-74
2023/10/31 03:12:00;;;;;;;3.17;2.67;;;9.60;99.90;;;;;;5135876;27;20253;-75
2023/10/31 03:14:28;;;;;;;3.33;2.43;;;9.60;99.90;;;;;;5135866;27;20255;-75
2023/10/31 03:16:54;;;;;;;3.00;2.70;;;9.50;99.90;;;;;;5135638;27;20685;-75
2023/10/31 03:19:21;;;;;;;3.80;2.50;;;9.50;99.90;;;;;;5135660;27;20195;-74
2023/10/31 03:21:47;;;;;;;2.60;2.40;;;9.50;99.90;;;;;;5135641;27;20275;-75
2023/10/31 03:24:14;;;;;;;2.30;2.10;;;9.50;99.90;;;;;;5135630;27;20195;-74
2023/10/31 03:26:41;;;;;;;3.77;2.30;;;9.40;99.90;;;;;;5135827;27;20247;-74
2023/10/31 03:29:07;;;;;;;2.10;2.00;;;9.30;99.90;;;;;;5135431;27;20191;-73
2023/10/31 03:31:36;;;;;;;3.67;2.10;;;9.30;99.90;;;;;;5135337;27;20641;-73
2023/10/31 03:34:02;;;;;;;2.57;1.97;;;9.30;99.90;;;;;;5135115;27;20223;-73
2023/10/31 03:36:29;;;;;;;2.10;1.90;;;9.30;99.90;;;;;;5135631;27;20199;-73
2023/10/31 03:38:55;;;;;;;4.60;2.00;;;9.20;99.90;;;;;;5135603;27;20194;-73
2023/10/31 03:41:22;;;;;;;2.53;2.00;;;9.20;99.90;;;;;;5135120;27;20576;-73
2023/10/31 03:43:49;;;;;;;1.90;1.70;;;9.20;99.90;;;;;;5135123;27;20233;-74
2023/10/31 03:46:15;;;;;;;2.63;2.00;;;9.20;99.90;;;;;;5135107;27;20252;-73
2023/10/31 03:48:44;;;;;;;2.80;2.10;;;9.10;99.90;;;;;;5135102;27;20231;-73
2023/10/31 03:51:10;;;;;;;2.10;1.90;;;9.10;99.90;;;;;;5135095;27;20539;-73
2023/10/31 03:53:37;;;;;;;1.73;1.63;;;9.10;99.90;;;;;;5135076;27;20247;-73
2023/10/31 03:56:04;;;;;;;2.10;1.80;;;9.20;99.90;;;;;;5134961;27;20256;-73
2023/10/31 03:58:31;;;;;;;3.20;1.80;;;9.10;99.90;;;;;;5134554;27;20195;-74
2023/10/31 04:00:58;;;;;;;2.70;2.00;;;9.10;99.90;;;;;;5134980;27;20203;-73
2023/10/31 04:03:24;;;;;;;2.87;2.00;;;9.20;99.90;;;;;;5134825;27;20222;-74
2023/10/31 04:05:52;;;;;;;1.97;1.77;;;9.20;99.90;;;;;;5134569;27;20719;-74
2023/10/31 04:08:19;;;;;;;1.93;1.77;;;9.20;99.90;;;;;;5134838;27;20252;-74
2023/10/31 04:10:45;;;;;;;3.03;2.00;;;9.10;99.90;;;;;;5134696;27;20287;-74
2023/10/31 04:13:12;;;;;;;4.23;1.90;;;9.10;99.90;;;;;;5134659;27;20665;-73
2023/10/31 04:15:39;;;;;;;1.97;1.63;;;9.10;99.90;;;;;;5134573;27;20711;-74
2023/10/31 04:18:06;;;;;;;2.63;1.90;;;9.10;99.90;;;;;;5134588;27;20194;-73
2023/10/31 04:20:32;;;;;;;1.97;1.53;;;9.00;99.90;;;;;;5134628;27;20244;-73
2023/10/31 04:23:00;;;;;;;3.43;1.50;;;9.00;99.90;;;;;;5134444;27;20230;-72
2023/10/31 04:25:29;;;;;;;6.23;2.00;;;9.00;99.90;;;;;;5134293;27;20199;-72
2023/10/31 04:27:55;;;;;;;1.60;1.50;;;9.10;99.90;;;;;;5134360;27;20195;-73
2023/10/31 04:30:22;;;;;;;2.13;1.53;;;9.00;99.90;;;;;;5134095;27;20252;-73
2023/10/31 04:32:49;;;;;;;2.50;1.30;;;9.00;99.90;;;;;;5134349;27;20276;-72
2023/10/31 04:35:15;;;;;;;5.20;1.40;;;9.00;99.90;;;;;;5134159;27;20215;-73
2023/10/31 04:37:42;;;;;;;2.40;1.60;;;9.00;99.90;;;;;;5133559;27;20231;-73
2023/10/31 04:40:12;;;;;;;2.20;1.30;;;9.00;99.90;;;;;;5134068;27;20210;-73
2023/10/31 04:42:39;;;;;;;2.50;1.63;;;8.90;99.90;;;;;;5133804;27;20233;-73
2023/10/31 04:45:07;;;;;;;1.60;1.20;;;9.00;99.90;;;;;;5133927;27;20194;-74
2023/10/31 04:47:34;;;;;;;1.60;1.50;;;9.00;99.90;;;;;;5134187;27;20206;-73
2023/10/31 04:50:01;;;;;;;2.23;1.30;;;9.00;99.90;;;;;;5134105;27;20535;-73
2023/10/31 04:52:27;;;;;;;2.67;1.60;;;9.00;99.90;;;;;;5134001;27;20542;-74
2023/10/31 04:54:54;;;;;;;4.37;1.60;;;9.00;99.90;;;;;;5133840;27;20191;-73
2023/10/31 04:57:22;;;;;;;6.73;1.47;;;9.00;99.90;;;;;;5133747;27;20282;-73
2023/10/31 04:59:49;;;;;;;2.70;1.43;;;9.10;99.90;;;;;;5133849;27;20282;-73
2023/10/31 05:02:16;;;;;;;1.70;1.30;;;9.00;99.90;;;;;;5133877;27;20199;-73
2023/10/31 05:04:43;;;;;;;2.10;1.50;;;9.00;99.90;;;;;;5133826;27;20252;-73
2023/10/31 05:07:09;;;;;;;1.47;1.30;;;9.10;99.90;;;;;;5134015;28;20230;-73
2023/10/31 05:09:36;;;;;;;2.10;1.33;;;9.10;99.90;;;;;;5133091;27;20198;-73
2023/10/31 05:12:04;;;;;;;1.30;1.10;;;9.10;99.90;;;;;;5133427;28;20194;-73
2023/10/31 05:14:31;;;;;;;4.77;1.37;;;9.10;99.90;;;;;;5133655;28;20191;-72
2023/10/31 05:16:58;;;;;;;3.07;1.27;;;9.10;99.90;;;;;;5133470;28;20199;-74
2023/10/31 05:19:25;;;;;;;2.33;1.23;;;9.00;99.90;;;;;;5133496;28;20199;-72
2023/10/31 05:21:52;;;;;;;3.50;1.40;;;9.00;99.90;;;;;;5133631;28;20198;-73
2023/10/31 05:24:19;;;;;;;2.10;1.20;;;9.00;99.90;;;;;;5133423;28;20230;-73
2023/10/31 05:26:47;;;;;;;1.30;1.20;;;9.00;99.90;;;;;;5133753;28;20330;-74
2023/10/31 05:29:14;;;;;;;2.27;1.40;;;8.90;99.90;;;;;;5133364;28;20558;-73
2023/10/31 05:31:43;;;;;;;3.63;1.40;;;8.90;99.90;;;;;;5133579;28;20244;-73
2023/10/31 05:34:09;;;;;;;2.93;1.40;;;8.90;99.90;;;;;;5133193;28;20794;-72
2023/10/31 05:36:36;;;;;;;2.33;1.60;;;8.80;99.90;;;;;;5133445;28;20555;-72
2023/10/31 05:39:02;;;;;;;1.57;1.17;;;8.80;99.90;;;;;;5133488;28;20194;-73
2023/10/31 05:41:29;;;;;;;1.50;1.20;;;8.80;99.90;;;;;;5133226;28;20600;-73
2023/10/31 05:43:56;;;;;;;2.90;1.30;;;8.80;99.90;;;;;;5133456;28;20610;-73
2023/10/31 05:46:22;;;;;;;3.07;1.30;;;8.70;99.90;;;;;;5133467;28;20195;-73
2023/10/31 05:48:50;;;;;;;1.20;1.10;;;8.70;99.90;;;;;;5133334;28;20203;-73
2023/10/31 05:51:18;;;;;;;2.50;1.37;;;8.70;99.90;;;;;;5133228;28;20535;-72
2023/10/31 05:53:46;;;;;;;1.33;1.17;;;8.70;99.90;;;;;;5133245;28;20202;-73
2023/10/31 05:56:13;;;;;;;1.30;1.17;;;8.70;99.90;;;;;;5133606;28;20251;-73
2023/10/31 05:58:40;;;;;;;3.30;1.70;;;8.70;99.90;;;;;;5134228;28;20276;-73
2023/10/31 06:01:08;;;;;;;2.07;1.40;;;8.70;99.90;;;;;;5133720;28;20255;-74
2023/10/31 06:03:35;;;;;;;2.40;1.20;;;8.70;99.90;;;;;;5133133;28;20219;-73
2023/10/31 06:06:03;;;;;;;1.20;1.10;;;8.80;99.90;;;;;;5133111;28;20206;-74
2023/10/31 06:08:30;;;;;;;1.70;1.30;;;8.80;99.90;;;;;;5133261;28;20524;-73
2023/10/31 06:10:57;;;;;;;1.83;1.40;;;8.80;99.90;;;;;;5133201;28;20191;-74
2023/10/31 06:13:25;;;;;;;2.57;1.53;;;8.80;99.90;;;;;;5133288;28;20228;-73
2023/10/31 06:15:52;;;;;;;5.43;1.30;;;8.80;99.90;;;;;;5133041;28;20282;-73
2023/10/31 06:18:19;;;;;;;1.20;1.10;;;8.80;99.90;;;;;;5133613;28;20330;-73
2023/10/31 06:20:46;;;;;;;1.63;1.50;;;8.80;99.90;;;;;;5133370;27;20194;-73
2023/10/31 06:23:13;;;;;;;2.97;1.40;;;8.80;99.90;;;;;;5136774;27;20222;-72
2023/10/31 06:25:40;;;;;;;3.03;2.03;;;8.80;99.90;;;;;;5136774;27;20247;-73
2023/10/31 06:28:07;;;;;;;3.90;2.63;;;8.90;99.90;;;;;;5137389;27;20658;-73
2023/10/31 06:30:34;;;;;;;18.17;14.73;;;8.90;99.90;;;;;;5136965;27;20195;-73
2023/10/31 06:33:00;;;;;;;6.83;5.43;;;8.90;99.90;;;;;;5136185;27;20203;-72
2023/10/31 06:35:27;;;;;;;2.30;2.10;;;8.90;99.90;;;;;;5136296;27;20314;-73
2023/10/31 06:37:56;;;;;;;2.47;1.70;;;8.90;99.90;;;;;;5136578;27;20290;-74
2023/10/31 06:40:24;;;;;;;2.77;2.20;;;9.00;99.90;;;;;;5136222;27;20285;-72
2023/10/31 06:42:51;;;;;;;2.50;2.30;;;9.00;99.90;;;;;;5136008;27;20591;-73
2023/10/31 06:45:18;;;;;;;2.57;2.30;;;9.00;99.90;;;;;;5136089;27;20693;-73
2023/10/31 06:47:44;;;;;;;4.30;1.97;;;9.00;99.90;;;;;;5135956;27;20195;-73
2023/10/31 06:50:11;;;;;;;2.80;1.40;;;9.00;99.90;;;;;;5136084;27;20195;-73
2023/10/31 06:52:38;;;;;;;6.00;1.43;;;9.00;99.90;;;;;;5135957;27;20198;-73
2023/10/31 06:55:05;;;;;;;3.27;1.47;;;9.00;99.90;;;;;;5136280;27;20199;-73
2023/10/31 06:57:33;;;;;;;1.47;1.20;;;9.00;99.90;;;;;;5135969;27;20199;-73
2023/10/31 07:00:00;;;;;;;3.97;1.60;;;9.00;99.90;;;;;;5135962;27;20202;-73
2023/10/31 07:02:26;;;;;;;2.77;1.40;;;9.00;99.90;;;;;;5135729;27;20584;-73
2023/10/31 07:04:53;;;;;;;1.83;1.53;;;9.00;99.90;;;;;;5136077;27;20644;-73
2023/10/31 07:07:20;;;;;;;1.77;1.30;;;9.10;99.90;;;;;;5135786;27;20251;-73
2023/10/31 07:09:46;;;;;;;3.90;1.50;;;9.10;99.90;;;;;;5135870;27;20195;-73
2023/10/31 07:12:13;;;;;;;2.30;1.20;;;9.10;99.90;;;;;;5135847;27;20604;-74
2023/10/31 07:14:41;;;;;;;2.80;2.00;;;9.20;99.90;;;;;;5135655;27;20399;-74
2023/10/31 07:17:07;;;;;;;3.27;1.30;;;9.20;99.90;;;;;;5135560;27;20195;-73
2023/10/31 07:19:34;;;;;;;1.80;1.50;;;9.20;99.90;;;;;;5135764;27;20203;-72
2023/10/31 07:22:01;;;;;;;1.97;1.37;;;9.30;99.90;;;;;;5135633;27;20195;-73
2023/10/31 07:24:28;;;;;;;1.80;1.30;;;9.30;99.90;;;;;;5135387;27;20284;-73
2023/10/31 07:26:54;;;;;;;2.77;1.20;;;9.30;99.90;;;;;;5135129;27;20290;-73
2023/10/31 07:29:21;;;;;;;1.87;1.10;;;9.30;99.90;;;;;;5135519;27;20199;-73
2023/10/31 07:31:49;;;;;;;2.43;1.20;;;9.30;99.90;;;;;;5135769;27;20199;-72
2023/10/31 07:34:16;;;;;;;2.70;1.40;;;9.40;99.90;;;;;;5134690;27;20227;-73
2023/10/31 07:36:43;;;;;;;1.87;1.30;;;9.40;99.90;;;;;;5135312;27;20199;-73
2023/10/31 07:39:12;;;;;;;1.33;1.20;;;9.50;99.90;;;;;;5135232;27;20620;-72
2023/10/31 07:41:39;;;;;;;1.90;1.37;;;9.50;99.90;;;;;;5134938;27;20199;-73
2023/10/31 07:44:05;;;;;;;2.33;1.97;;;9.50;99.90;;;;;;5134990;27;20214;-73
2023/10/31 07:46:35;;;;;;;2.50;1.60;;;9.50;99.90;;;;;;5135294;27;20201;-74
2023/10/31 07:49:03;;;;;;;2.67;1.50;;;9.50;99.90;;;;;;5134772;27;20223;-74
2023/10/31 07:51:30;;;;;;;2.20;1.20;;;9.50;99.90;;;;;;5135025;27;20244;-73
2023/10/31 07:53:58;;;;;;;1.80;1.50;;;9.40;99.90;;;;;;5134805;27;20541;-73
2023/10/31 07:56:25;;;;;;;1.80;1.50;;;9.40;99.90;;;;;;5134837;27;20191;-73
2023/10/31 07:58:52;;;;;;;4.03;1.60;;;9.40;99.90;;;;;;5135156;27;20654;-74
2023/10/31 08:01:19;;;;;;;1.70;1.30;;;9.50;99.90;;;;;;5134766;27;20290;-75
2023/10/31 08:03:46;;;;;;;2.27;1.50;;;9.40;99.90;;;;;;5134690;27;20243;-75
2023/10/31 08:06:14;;;;;;;1.77;1.20;;;9.40;99.90;;;;;;5134845;27;20195;-76
2023/10/31 08:08:41;;;;;;;1.87;1.13;;;9.20;99.90;;;;;;5135079;27;20199;-80
2023/10/31 08:11:09;;;;;;;1.90;1.43;;;9.00;99.90;;;;;;5134617;27;20195;-80
2023/10/31 08:13:36;;;;;;;1.70;1.43;;;9.00;99.90;;;;;;5134874;27;20283;-81
2023/10/31 08:16:03;;;;;;;2.67;1.60;;;8.90;99.90;;;;;;5134506;27;20198;-82
2023/10/31 08:18:30;;;;;;;1.93;1.40;;;9.00;99.90;;;;;;5134524;27;20697;-81
2023/10/31 08:20:57;;;;;;;3.13;1.50;;;9.00;99.90;;;;;;5134500;27;20282;-80
2023/10/31 08:23:27;;;;;;;2.70;1.30;;;9.10;99.90;;;;;;5134348;27;20221;-78
2023/10/31 08:25:53;;;;;;;1.60;1.10;;;9.10;99.90;;;;;;5134237;27;20204;-77
2023/10/31 08:28:20;;;;;;;1.93;1.40;;;9.10;99.90;;;;;;5134506;27;20543;-79
2023/10/31 08:30:47;;;;;;;3.17;1.37;;;9.20;99.90;;;;;;5134318;27;20201;-74
2023/10/31 08:33:14;;;;;;;2.93;1.40;;;9.20;99.90;;;;;;5134258;27;20195;-77
2023/10/31 08:35:41;;;;;;;2.50;1.40;;;9.20;99.90;;;;;;5134192;27;20234;-73
2023/10/31 08:38:07;;;;;;;2.80;1.40;;;9.30;99.90;;;;;;5130080;27;20583;-74
2023/10/31 08:40:35;;;;;;;2.77;1.43;;;9.20;99.90;;;;;;5122069;27;20195;-73
2023/10/31 08:43:04;;;;;;;2.20;1.37;;;9.30;99.90;;;;;;5123494;27;20191;-72
2023/10/31 08:45:30;;;;;;;2.17;1.47;;;9.30;99.90;;;;;;5132686;27;20223;-72
2023/10/31 08:47:57;;;;;;;3.33;1.30;;;9.30;99.90;;;;;;5133756;27;20275;-73
2023/10/31 08:50:24;;;;;;;3.17;1.40;;;9.20;99.90;;;;;;5124314;27;20241;-73
2023/10/31 08:52:51;;;;;;;2.63;1.40;;;9.00;99.90;;;;;;5116418;27;20203;-73
2023/10/31 08:55:18;;;;;;;1.20;1.10;;;9.00;99.90;;;;;;5132150;27;20206;-73
2023/10/31 08:57:46;;;;;;;2.63;1.40;;;8.90;99.90;;;;;;5133709;27;20195;-73
2023/10/31 09:00:13;;;;;;;1.60;1.23;;;8.90;99.90;;;;;;5133293;27;20588;-74
2023/10/31 09:02:40;;;;;;;1.73;1.50;;;8.90;99.90;;;;;;5133726;27;20286;-73
2023/10/31 09:05:07;;;;;;;2.47;1.30;;;9.00;99.90;;;;;;5133216;27;20260;-73
2023/10/31 09:07:34;;;;;;;4.40;1.70;;;9.00;99.90;;;;;;5133405;27;20595;-73
2023/10/31 09:10:00;;;;;;;2.50;1.40;;;8.90;99.90;;;;;;5133468;27;20240;-73
2023/10/31 09:12:27;;;;;;;2.97;1.50;;;9.00;99.90;;;;;;5133212;28;20247;-73
2023/10/31 09:14:55;;;;;;;3.17;1.50;;;9.10;99.90;;;;;;5133353;28;20275;-73
2023/10/31 09:17:22;;;;;;;2.17;1.30;;;9.10;99.90;;;;;;5133595;28;20550;-73
2023/10/31 09:19:48;;;;;;;1.63;1.47;;;9.20;99.90;;;;;;5130469;27;20196;-73
2023/10/31 09:22:16;;;;;;;1.87;1.43;;;9.20;99.90;;;;;;5113068;28;20323;-72
2023/10/31 09:24:43;;;;;;;1.63;1.53;;;9.20;99.90;;;;;;5113084;28;20227;-72
2023/10/31 09:27:11;;;;;;;3.03;1.43;;;9.20;99.90;;;;;;5112834;28;20196;-72
2023/10/31 09:29:37;;;;;;;1.30;1.20;;;9.30;99.90;;;;;;5113019;28;20600;-72
2023/10/31 09:32:07;;;;;;;3.20;1.67;;;9.20;99.90;;;;;;5113003;28;20291;-72
2023/10/31 09:34:33;;;;;;;2.30;1.30;;;9.40;99.90;;;;;;5112699;28;20239;-72
2023/10/31 09:37:00;;;;;;;2.90;1.37;;;9.50;99.90;;;;;;5133387;28;20791;-73
2023/10/31 09:39:27;;;;;;;1.63;1.50;;;9.60;99.90;;;;;;5129293;28;20240;-73
2023/10/31 09:41:54;;;;;;;2.10;1.20;;;9.70;99.90;;;;;;5132728;28;20207;-73
2023/10/31 09:44:21;;;;;;;1.27;1.07;;;9.80;99.90;;;;;;5123841;28;20227;-73
2023/10/31 09:46:48;;;;;;;1.20;1.10;;;9.70;99.90;;;;;;5112774;28;20196;-73
2023/10/31 09:49:17;;;;;;;1.10;1.00;;;10.00;99.90;;;;;;5112925;28;20500;-73
2023/10/31 09:51:43;;;;;;;1.40;1.30;;;9.90;99.90;;;;;;5112878;28;20199;-74
2023/10/31 09:54:13;;;;;;;1.87;1.50;;;9.80;99.90;;;;;;5112855;28;20200;-73
2023/10/31 09:56:39;;;;;;;1.87;1.40;;;9.90;99.90;;;;;;5114270;28;20200;-73
2023/10/31 09:59:06;;;;;;;3.10;1.57;;;9.80;99.90;;;;;;5116594;28;20196;-73
2023/10/31 10:01:33;;;;;;;3.37;1.50;;;10.00;99.90;;;;;;5116590;28;20221;-73
2023/10/31 10:03:59;;;;;;;2.13;1.50;;;9.90;99.90;;;;;;5116747;28;20235;-74
2023/10/31 10:06:28;;;;;;;1.93;1.47;;;9.90;99.90;;;;;;5116612;28;20287;-73
2023/10/31 10:08:56;;;;;;;2.23;1.57;;;10.00;99.90;;;;;;5116531;28;20202;-73
2023/10/31 10:11:23;;;;;;;4.03;1.40;;;10.10;99.90;;;;;;5116195;28;20601;-75
2023/10/31 10:13:52;;;;;;;2.27;1.70;;;10.00;99.90;;;;;;5116417;28;20196;-74
2023/10/31 10:16:30;;;;;;;1.77;1.40;;;10.10;99.90;;;;;;5116170;28;20559;-74
2023/10/31 10:18:56;;;;;;;5.70;1.83;;;10.00;99.90;;;;;;5116447;28;20199;-74
2023/10/31 10:21:23;;;;;;;5.03;1.70;;;10.10;99.90;;;;;;5116255;28;20196;-74
2023/10/31 10:23:52;;;;;;;3.10;1.60;;;10.10;99.90;;;;;;5116066;28;20195;-74
2023/10/31 10:26:20;;;;;;;2.20;1.60;;;10.00;99.90;;;;;;5115970;28;20195;-74
2023/10/31 10:28:47;;;;;;;4.03;1.90;;;10.00;99.90;;;;;;5115902;28;20223;-74
2023/10/31 10:31:15;;;;;;;2.57;1.90;;;9.90;99.90;;;;;;5116172;28;20294;-74
2023/10/31 10:33:42;;;;;;;1.73;1.57;;;9.70;99.90;;;;;;5115688;28;20655;-74
2023/10/31 10:36:11;;;;;;;5.20;2.13;;;9.50;99.90;;;;;;5115677;28;20596;-73
2023/10/31 10:38:39;;;;;;;3.10;2.17;;;9.40;99.90;;;;;;5115862;28;20589;-74
2023/10/31 10:41:11;;;;;;;2.63;2.00;;;9.30;99.90;;;;;;5115830;28;20200;-82
2023/10/31 10:43:39;;;;;;;3.90;2.50;;;9.20;99.90;;;;;;5115710;28;20631;-78
2023/10/31 10:46:08;;;;;;;5.80;2.70;;;9.20;99.90;;;;;;5115736;28;20283;-77
2023/10/31 10:48:38;;;;;;;4.27;2.40;;;9.20;99.90;;;;;;5115848;28;20203;-77
2023/10/31 10:51:11;;;;;;;4.57;2.40;;;9.20;99.90;;;;;;5115747;28;20227;-78
2023/10/31 10:53:49;;;;;;;5.20;3.67;;;9.30;99.90;;;;;;5115484;28;20192;-77
2023/10/31 10:56:22;;;;;;;9.63;5.80;;;9.40;99.90;;;;;;5115899;28;20234;-77
2023/10/31 10:58:55;;;;;;;5.53;2.20;;;9.40;99.90;;;;;;5115722;28;20196;-76
2023/10/31 11:01:23;;;;;;;5.17;2.43;;;9.40;99.90;;;;;;5115479;28;20245;-76
2023/10/31 11:03:51;;;;;;;5.50;2.93;;;9.50;99.90;;;;;;5115396;28;20203;-75
2023/10/31 11:06:19;;;;;;;7.13;3.73;;;9.50;99.90;;;;;;5115147;28;20220;-75
2023/10/31 11:08:47;;;;;;;4.80;3.20;;;9.60;99.90;;;;;;5114323;28;20203;-75
2023/10/31 11:11:15;;;;;;;4.63;2.43;;;9.60;99.90;;;;;;5115350;28;20256;-74
2023/10/31 11:13:44;;;;;;;4.30;2.03;;;9.70;99.90;;;;;;5115272;28;20244;-74
2023/10/31 11:16:18;;;;;;;4.17;2.10;;;9.80;99.90;;;;;;5124102;27;20271;-74
2023/10/31 11:18:45;;;;;;;6.30;2.40;;;10.00;99.90;;;;;;5118257;27;20200;-73
2023/10/31 11:21:12;;;;;;;5.23;2.00;;;10.20;99.90;;;;;;5135225;27;20206;-75
2023/10/31 11:23:39;;;;;;;4.07;2.57;;;10.20;99.90;;;;;;5135567;27;20259;-74
2023/10/31 11:26:08;;;;;;;4.47;2.20;;;10.30;99.90;;;;;;5135462;27;20223;-72
2023/10/31 11:28:34;;;;;;;3.97;2.07;;;10.30;99.90;;;;;;5135266;27;20255;-72
2023/10/31 11:31:04;;;;;;;6.60;2.27;;;10.30;99.90;;;;;;5135348;27;20227;-74
2023/10/31 11:33:31;;;;;;;3.63;2.30;;;10.40;99.90;;;;;;5135592;27;20195;-73
2023/10/31 11:36:02;;;;;;;3.67;2.00;;;10.50;99.90;;;;;;5135147;27;20191;-72
2023/10/31 11:38:34;;;;;;;2.20;1.87;;;10.50;99.90;;;;;;5134894;27;20284;-72
2023/10/31 11:41:02;;;;;;;3.53;2.07;;;10.70;99.90;;;;;;5135177;27;20248;-73
2023/10/31 11:43:54;;;;;;;4.20;1.70;;;11.20;99.90;;;;;;5135195;27;20611;-73
2023/10/31 11:46:24;;;;;;;2.40;1.60;;;11.10;99.90;;;;;;5135123;27;20277;-73
2023/10/31 11:48:52;;;;;;;3.40;1.90;;;11.30;99.90;;;;;;5135118;27;20228;-73
2023/10/31 11:51:19;;;;;;;3.00;1.57;;;11.80;99.90;;;;;;5134944;27;20191;-72
2023/10/31 11:53:46;;;;;;;2.47;1.70;;;11.80;99.90;;;;;;5120679;27;20249;-72
2023/10/31 11:56:13;;;;;;;2.40;1.67;;;11.90;99.90;;;;;;5114166;28;20218;-72
2023/10/31 11:58:40;;;;;;;4.20;1.57;;;12.00;99.90;;;;;;5114520;28;20192;-75
2023/10/31 12:01:08;;;;;;;4.20;1.50;;;12.60;99.90;;;;;;5114259;28;20247;-73
2023/10/31 12:03:40;;;;;;;4.30;1.50;;;13.00;99.90;;;;;;5114207;28;20196;-72
2023/10/31 12:06:08;;;;;;;2.67;1.40;;;14.20;99.90;;;;;;5114039;28;20284;-73
2023/10/31 12:08:37;;;;;;;4.50;1.80;;;14.30;99.90;;;;;;5114031;28;20230;-75
2023/10/31 12:11:08;;;;;;;3.83;1.90;;;15.90;99.90;;;;;;5114283;28;20200;-74
2023/10/31 12:13:36;;;;;;;3.13;1.70;;;14.80;99.90;;;;;;5114150;28;20196;-74
2023/10/31 12:16:04;;;;;;;5.83;2.10;;;15.60;99.90;;;;;;5113897;28;20712;-74
2023/10/31 12:18:31;;;;;;;3.80;1.40;;;16.60;99.90;;;;;;5113965;28;20195;-73
2023/10/31 12:20:58;;;;;;;7.97;2.30;;;15.50;99.90;;;;;;5113903;28;20204;-74
2023/10/31 12:23:25;;;;;;;3.83;1.70;;;13.40;99.90;;;;;;5113693;28;20200;-73
2023/10/31 12:25:53;;;;;;;5.53;1.90;;;12.70;99.90;;;;;;5113796;28;20258;-73
2023/10/31 12:28:20;;;;;;;5.50;1.90;;;12.30;99.90;;;;;;5113828;28;20204;-74
2023/10/31 12:30:48;;;;;;;5.90;2.00;;;12.00;99.90;;;;;;5113722;28;20243;-74
2023/10/31 12:33:15;;;;;;;5.87;1.53;;;12.00;99.90;;;;;;5113641;28;20199;-72
2023/10/31 12:35:42;;;;;;;6.57;1.90;;;11.90;99.90;;;;;;5113658;28;20223;-72
2023/10/31 12:38:11;;;;;;;2.57;1.70;;;11.80;99.90;;;;;;5113799;28;20225;-73
2023/10/31 12:40:39;;;;;;;4.17;1.60;;;12.00;99.90;;;;;;5113273;28;20608;-74
2023/10/31 12:43:06;;;;;;;3.23;1.70;;;12.80;99.90;;;;;;5113414;28;20240;-74
2023/10/31 12:45:33;;;;;;;3.00;1.63;;;13.70;99.90;;;;;;5113515;28;20276;-74
2023/10/31 12:48:03;;;;;;;5.10;1.80;;;13.40;99.90;;;;;;5113529;28;20249;-74
2023/10/31 12:50:30;;;;;;;6.40;1.77;;;12.90;99.90;;;;;;5113432;28;20245;-73
2023/10/31 12:52:59;;;;;;;6.93;1.70;;;12.40;99.90;;;;;;5113650;28;20251;-74